Time;durP1;ratioP1;P1;durP2;ratioP2;P2;SDS_P1;SDS_P2;PMS_P1;PMS_P2;Temp;Humidity;BMP_temperature;BMP_pressure;BME280_temperature;BME280_humidity;BME280_pressure;Samples;Min_cycle;Max_cycle;Signal;HPM_P1;HPM_P2
2022/03/22 00:02:27;;;;;;;13.30;7.10;;;;;;;2.83;59.84;102585.02;105326;1274;61508;-71
2022/03/22 00:04:54;;;;;;;19.40;9.40;;;;;;;2.80;59.69;102584.27;105472;1274;73943;-72
2022/03/22 00:07:22;;;;;;;16.70;9.70;;;;;;;2.77;60.03;102589.30;105276;1274;72360;-70
2022/03/22 00:09:48;;;;;;;17.80;8.60;;;;;;;2.75;59.97;102588.20;105236;1274;73965;-72
2022/03/22 00:12:16;;;;;;;14.10;7.50;;;;;;;2.73;59.92;102586.23;105252;1274;61129;-72
2022/03/22 00:14:43;;;;;;;17.80;8.30;;;;;;;2.71;60.04;102588.25;105261;1274;61072;-74
2022/03/22 00:17:30;;;;;;;11.80;7.40;;;;;;;2.69;59.95;102590.11;105205;1274;77277;-73
2022/03/22 00:19:58;;;;;;;12.40;7.50;;;;;;;2.67;60.04;102592.09;105192;1274;72059;-71
2022/03/22 00:22:25;;;;;;;14.90;9.30;;;;;;;2.65;59.98;102589.04;105108;1274;74555;-71
2022/03/22 00:24:51;;;;;;;13.30;7.70;;;;;;;2.65;59.98;102586.42;105029;1274;60886;-72
2022/03/22 00:27:21;;;;;;;14.70;8.10;;;;;;;2.66;60.03;102586.07;105049;1274;61819;-71
2022/03/22 00:29:53;;;;;;;14.20;7.90;;;;;;;2.66;60.00;102585.88;105042;1274;74163;-72
2022/03/22 00:32:20;;;;;;;13.80;8.00;;;;;;;2.65;60.07;102584.13;105268;1274;72415;-69
2022/03/22 00:34:47;;;;;;;17.20;9.20;;;;;;;2.65;60.22;102582.23;105324;1274;73000;-71
2022/03/22 00:37:17;;;;;;;15.20;8.10;;;;;;;2.65;60.16;102581.38;105220;1274;61100;-73
2022/03/22 00:39:45;;;;;;;12.10;6.90;;;;;;;2.63;60.15;102578.64;105317;1274;62137;-72
2022/03/22 00:42:14;;;;;;;15.30;7.70;;;;;;;2.62;60.31;102578.00;105127;1274;74126;-72
2022/03/22 00:44:41;;;;;;;13.40;8.60;;;;;;;2.61;60.15;102578.79;105367;1274;71336;-73
2022/03/22 00:47:08;;;;;;;14.70;8.30;;;;;;;2.59;60.16;102577.83;105129;1274;72989;-72
2022/03/22 00:49:38;;;;;;;12.50;7.50;;;;;;;2.56;60.35;102581.82;105138;1276;60474;-71
2022/03/22 00:52:05;;;;;;;12.60;8.10;;;;;;;2.54;60.54;102581.75;105128;1274;62882;-72
2022/03/22 00:54:33;;;;;;;18.50;8.30;;;;;;;2.51;60.62;102582.77;105249;1274;74160;-72
2022/03/22 00:57:00;;;;;;;19.00;10.00;;;;;;;2.49;60.51;102583.95;105176;1274;71350;-72
2022/03/22 01:02:27;;;;;;;12.60;7.70;;;;;;;2.41;60.76;102585.19;105216;1274;60915;-69
2022/03/22 01:04:56;;;;;;;16.80;8.80;;;;;;;2.37;60.98;102582.56;105386;1274;60521;-71
2022/03/22 01:07:25;;;;;;;15.00;8.70;;;;;;;2.35;61.10;102582.67;105253;1274;74154;-71
2022/03/22 01:09:54;;;;;;;10.50;6.80;;;;;;;2.32;61.08;102579.88;105152;1276;72388;-71
2022/03/22 01:12:44;;;;;;;13.80;7.60;;;;;;;2.30;61.37;102577.34;105122;1274;74237;-72
2022/03/22 01:15:20;;;;;;;15.20;8.30;;;;;;;2.28;61.30;102577.43;105267;1273;60531;-73
2022/03/22 01:17:54;;;;;;;15.80;8.50;;;;;;;2.24;61.45;102576.56;105181;1274;60611;-71
2022/03/22 01:20:25;;;;;;;14.30;8.80;;;;;;;2.22;61.50;102577.00;105045;1277;74178;-72
2022/03/22 01:22:54;;;;;;;12.90;7.10;;;;;;;2.20;61.66;102573.77;105237;1275;71618;-72
2022/03/22 01:25:27;;;;;;;14.30;8.30;;;;;;;2.18;61.92;102570.23;105616;1274;72676;-71
2022/03/22 01:27:55;;;;;;;14.60;8.20;;;;;;;2.15;61.96;102570.52;105364;1274;60668;-71
2022/03/22 01:30:23;;;;;;;9.70;6.90;;;;;;;2.13;62.10;102569.98;105241;1274;60450;-71
2022/03/22 01:32:52;;;;;;;16.80;8.00;;;;;;;2.11;62.18;102571.61;105445;1274;75448;-71
2022/03/22 01:35:29;;;;;;;13.10;7.80;;;;;;;2.09;62.40;102572.25;105287;1274;70659;-71
2022/03/22 01:38:17;;;;;;;14.80;7.70;;;;;;;2.06;62.30;102571.34;105701;1274;73229;-72
2022/03/22 01:40:44;;;;;;;12.40;7.70;;;;;;;2.04;62.47;102568.64;105197;1275;60594;-71
2022/03/22 01:43:25;;;;;;;15.80;8.70;;;;;;;2.01;62.61;102564.59;105217;1274;61690;-72
2022/03/22 01:45:51;;;;;;;13.90;7.90;;;;;;;1.98;62.36;102565.59;105247;1274;75139;-72
2022/03/22 01:48:27;;;;;;;12.60;8.10;;;;;;;1.96;62.54;102560.27;105257;1274;71442;-72
2022/03/22 01:51:15;;;;;;;16.60;8.30;;;;;;;1.94;62.73;102558.46;105229;1274;73993;-72
2022/03/22 01:53:50;;;;;;;16.40;8.80;;;;;;;1.92;62.72;102554.56;105204;1274;60470;-72
2022/03/22 01:56:17;;;;;;;18.40;9.30;;;;;;;1.89;62.81;102548.78;105236;1274;61762;-72
2022/03/22 01:58:47;;;;;;;13.10;7.70;;;;;;;1.86;62.86;102547.83;105279;1274;75227;-72
2022/03/22 02:07:14;;;;;;;14.50;8.10;;;;;;;1.79;63.32;102548.19;105330;1273;60888;-72
2022/03/22 02:09:41;;;;;;;12.40;7.50;;;;;;;1.77;63.33;102545.48;105217;1274;61761;-71
2022/03/22 02:12:09;;;;;;;15.10;7.80;;;;;;;1.73;63.46;102544.95;105005;1274;75268;-72
2022/03/22 02:14:38;;;;;;;16.10;8.20;;;;;;;1.73;63.65;102545.16;105477;1274;71178;-72
2022/03/22 02:17:07;;;;;;;13.80;8.20;;;;;;;1.69;63.94;102542.54;105133;1274;72959;-72
2022/03/22 02:19:52;;;;;;;;;;;;;;;;;;;;;
2022/03/22 02:22:40;;;;;;;14.40;7.80;;;;;;;1.63;63.90;102540.71;105065;1274;60487;-71
2022/03/22 02:25:15;;;;;;;12.50;7.30;;;;;;;1.60;63.93;102536.50;105100;1274;75427;-71
2022/03/22 02:27:46;;;;;;;14.20;7.70;;;;;;;1.57;64.08;102537.85;105202;1274;72668;-71
2022/03/22 02:30:15;;;;;;;14.00;8.00;;;;;;;1.55;64.19;102536.57;105061;1277;74461;-71
2022/03/22 02:33:11;;;;;;;12.00;6.60;;;;;;;1.53;64.24;102535.77;105170;1274;61163;-71
2022/03/22 02:35:39;;;;;;;13.60;7.80;;;;;;;1.53;64.49;102537.70;105334;1274;61172;-72
2022/03/22 02:38:36;;;;;;;12.00;8.00;;;;;;;1.51;64.33;102536.20;105174;1274;75968;-70
2022/03/22 02:41:32;;;;;;;;;;;;;;;;;;;;;
2022/03/22 02:44:17;;;;;;;;;;;;;;;;;;;;;
2022/03/22 02:47:09;;;;;;;13.20;7.90;;;;;;;1.48;64.36;102539.69;106613;1273;61292;-70
2022/03/22 02:49:39;;;;;;;13.30;7.40;;;;;;;1.45;64.41;102536.69;105238;1274;61265;-71
2022/03/22 02:52:17;;;;;;;15.00;8.20;;;;;;;1.44;64.63;102534.98;105098;1274;76825;-71
2022/03/22 02:54:54;;;;;;;14.00;7.80;;;;;;;1.41;64.75;102532.83;105168;1274;71408;-72
2022/03/22 02:57:40;;;;;;;;;;;;;;;;;;;;;
2022/03/22 03:00:21;;;;;;;;;;;;;;;;;;;;;
2022/03/22 03:03:08;;;;;;;18.30;8.50;;;;;;;1.35;64.94;102532.95;105369;1274;61286;-72
2022/03/22 03:05:48;;;;;;;15.90;8.20;;;;;;;1.32;64.95;102531.52;105167;1275;74734;-72
2022/03/22 03:08:26;;;;;;;12.70;8.00;;;;;;;1.29;65.05;102534.80;105244;1274;71690;-71
2022/03/22 03:11:02;;;;;;;16.20;8.30;;;;;;;1.26;65.15;102532.86;105387;1274;71661;-71
2022/03/22 03:17:13;;;;;;;15.40;9.50;;;;;;;1.16;65.66;102530.68;105254;1274;61498;-71
2022/03/22 03:19:43;;;;;;;15.00;8.00;;;;;;;1.12;65.64;102531.55;105386;1274;74902;-70
2022/03/22 03:22:12;;;;;;;13.30;8.00;;;;;;;1.07;65.98;102533.31;105351;1274;71959;-72
2022/03/22 03:24:50;;;;;;;13.50;8.20;;;;;;;1.03;66.09;102532.30;105421;1274;72954;-69
2022/03/22 03:27:41;;;;;;;13.40;8.50;;;;;;;0.98;66.16;102531.65;105257;1274;61268;-70
2022/03/22 03:30:10;;;;;;;15.40;9.40;;;;;;;0.92;66.38;102529.46;105334;1274;61860;-71
2022/03/22 03:32:46;;;;;;;16.60;9.50;;;;;;;0.88;66.55;102534.02;105115;1275;75167;-71
2022/03/22 03:35:13;;;;;;;14.30;8.20;;;;;;;0.82;66.82;102535.98;105322;1273;71811;-71
2022/03/22 03:38:00;;;;;;;15.50;9.00;;;;;;;0.78;66.98;102541.20;105193;1274;74420;-72
2022/03/22 03:44:06;;;;;;;15.30;7.90;;;;;;;0.68;67.37;102550.49;107449;1273;61398;-71
2022/03/22 03:47:07;;;;;;;14.20;8.90;;;;;;;0.64;67.48;102552.78;105628;1274;74278;-71
2022/03/22 03:49:49;;;;;;;14.40;8.60;;;;;;;0.60;67.86;102550.66;108178;1273;72509;-69
2022/03/22 03:52:24;;;;;;;16.50;8.20;;;;;;;0.57;67.88;102552.38;107862;1273;73982;-70
2022/03/22 03:54:52;;;;;;;13.30;8.30;;;;;;;0.55;68.00;102549.33;106699;1274;61280;-70
2022/03/22 03:57:49;;;;;;;15.70;8.70;;;;;;;0.53;68.16;102547.34;105249;1276;61314;-70
2022/03/22 04:00:36;;;;;;;15.30;9.40;;;;;;;0.51;68.25;102557.86;105252;1276;76168;-73
2022/03/22 04:03:23;;;;;;;14.00;7.70;;;;;;;0.47;68.45;102559.77;105392;1274;72688;-72
2022/03/22 04:06:09;;;;;;;13.20;8.50;;;;;;;0.44;68.77;102560.59;105362;1273;72839;-72
2022/03/22 04:08:39;;;;;;;15.10;8.70;;;;;;;0.39;68.85;102560.24;108289;1274;61021;-72
2022/03/22 04:11:16;;;;;;;16.70;8.90;;;;;;;0.36;68.92;102561.23;108262;1273;60300;-72
2022/03/22 04:13:43;;;;;;;13.00;7.90;;;;;;;0.33;69.12;102560.66;108248;1274;76268;-73
2022/03/22 04:16:12;;;;;;;14.40;7.10;;;;;;;0.30;69.21;102558.15;108260;1273;59525;-72
2022/03/22 04:18:41;;;;;;;14.00;8.20;;;;;;;0.31;69.59;102560.25;108123;1274;73983;-72
2022/03/22 04:21:28;;;;;;;13.30;7.80;;;;;;;0.31;69.75;102558.48;108218;1273;60916;-72
2022/03/22 04:24:15;;;;;;;12.00;7.50;;;;;;;0.33;70.01;102561.36;108254;1273;59137;-72
2022/03/22 04:26:46;;;;;;;14.80;7.70;;;;;;;0.33;70.22;102562.91;108246;1273;78583;-72
2022/03/22 04:34:47;;;;;;;16.40;9.90;;;;;;;0.45;70.36;102570.12;105204;1273;61259;-72
2022/03/22 04:37:41;;;;;;;18.30;9.10;;;;;;;0.46;70.36;102570.91;105026;1274;61220;-72
2022/03/22 04:40:07;;;;;;;17.00;9.10;;;;;;;0.48;70.54;102570.17;105205;1274;74027;-72
2022/03/22 04:42:35;;;;;;;17.00;8.90;;;;;;;0.49;70.50;102566.45;105168;1273;71425;-72
2022/03/22 04:45:03;;;;;;;13.30;8.00;;;;;;;0.50;70.49;102566.05;105291;1274;74004;-73
2022/03/22 04:47:35;;;;;;;14.20;7.70;;;;;;;0.51;70.24;102567.77;105116;1274;61444;-73
2022/03/22 04:50:14;;;;;;;17.00;9.00;;;;;;;0.51;70.45;102573.70;106635;1276;61144;-73
2022/03/22 04:58:43;;;;;;;18.70;9.60;;;;;;;0.51;70.30;102581.86;108236;1273;73049;-73
2022/03/22 05:01:33;;;;;;;11.70;7.00;;;;;;;0.51;70.10;102582.73;108100;1274;60104;-73
2022/03/22 05:04:00;;;;;;;14.50;7.90;;;;;;;0.51;70.25;102584.47;108305;1274;60616;-73
2022/03/22 05:06:27;;;;;;;17.10;8.80;;;;;;;0.50;70.26;102583.80;108270;1274;75151;-74
2022/03/22 05:08:57;;;;;;;15.10;8.80;;;;;;;0.51;70.47;102586.22;108080;1274;72704;-74
2022/03/22 05:11:24;;;;;;;14.20;7.90;;;;;;;0.51;70.50;102588.14;108072;1276;71956;-74
2022/03/22 05:13:54;;;;;;;13.40;8.60;;;;;;;0.51;70.50;102589.02;108288;1274;59411;-73
2022/03/22 05:16:21;;;;;;;13.50;8.40;;;;;;;0.50;70.49;102592.35;108313;1274;60370;-73
2022/03/22 05:18:51;;;;;;;15.20;9.30;;;;;;;0.49;70.48;102592.90;108111;1274;76064;-73
2022/03/22 05:21:19;;;;;;;16.60;10.00;;;;;;;0.49;70.37;102596.06;108299;1273;72130;-73
2022/03/22 05:23:46;;;;;;;16.30;8.80;;;;;;;0.48;70.51;102596.42;108280;1273;73113;-72
2022/03/22 05:26:13;;;;;;;17.90;10.50;;;;;;;0.48;70.50;102600.97;108246;1273;61165;-72
2022/03/22 05:29:02;;;;;;;16.60;10.10;;;;;;;0.48;70.65;102598.03;108123;1274;61394;-72
2022/03/22 05:31:34;;;;;;;14.10;9.00;;;;;;;0.50;70.86;102594.62;105304;1274;76020;-70
2022/03/22 05:34:03;;;;;;;14.40;8.70;;;;;;;0.54;70.99;102598.64;105652;1274;71520;-71
2022/03/22 05:36:41;;;;;;;17.10;8.80;;;;;;;0.60;70.86;102598.04;105354;1274;73988;-73
2022/03/22 05:39:13;;;;;;;16.00;9.10;;;;;;;0.65;70.75;102597.30;105521;1274;61283;-75
2022/03/22 05:41:44;;;;;;;20.20;9.70;;;;;;;0.70;70.79;102599.34;105340;1273;61315;-73
2022/03/22 05:44:13;;;;;;;14.90;8.90;;;;;;;0.75;70.71;102597.75;105083;1274;76397;-74
2022/03/22 05:46:40;;;;;;;17.60;9.50;;;;;;;0.79;70.74;102596.33;105206;1276;72798;-72
2022/03/22 05:49:13;;;;;;;14.40;9.30;;;;;;;0.84;70.55;102597.39;105201;1274;73019;-72
2022/03/22 05:51:40;;;;;;;13.10;8.50;;;;;;;0.88;70.36;102600.00;105508;1274;61324;-73
2022/03/22 05:54:07;;;;;;;13.90;8.60;;;;;;;0.92;70.48;102601.41;105244;1274;61289;-72
2022/03/22 05:56:37;;;;;;;14.40;9.30;;;;;;;0.96;70.38;102606.11;105218;1274;75193;-73
2022/03/22 05:59:08;;;;;;;17.10;9.50;;;;;;;1.00;70.29;102606.13;105401;1276;71519;-73
2022/03/22 06:01:35;;;;;;;18.10;10.60;;;;;;;1.04;70.12;102604.20;105251;1276;74315;-73
2022/03/22 06:04:02;;;;;;;20.70;10.30;;;;;;;1.08;70.16;102604.02;105507;1274;61173;-72
2022/03/22 06:06:28;;;;;;;19.80;9.70;;;;;;;1.12;70.11;102602.61;105404;1274;61650;-73
2022/03/22 06:08:55;;;;;;;19.90;11.20;;;;;;;1.16;69.97;102597.39;105226;1274;75673;-72
2022/03/22 06:11:24;;;;;;;16.50;9.90;;;;;;;1.22;70.05;102599.58;105294;1274;71523;-71
2022/03/22 06:13:51;;;;;;;15.00;9.40;;;;;;;1.29;69.98;102596.00;105446;1274;73992;-71
2022/03/22 06:16:49;;;;;;;19.70;10.60;;;;;;;1.36;69.89;102597.41;105405;1274;61270;-71
2022/03/22 06:19:17;;;;;;;19.60;9.60;;;;;;;1.44;69.93;102603.15;105431;1274;61265;-72
2022/03/22 06:21:44;;;;;;;18.90;11.00;;;;;;;1.52;69.81;102604.52;105521;1273;77432;-71
2022/03/22 06:24:13;;;;;;;16.90;10.70;;;;;;;1.60;69.73;102607.12;105496;1274;72466;-71
2022/03/22 06:26:40;;;;;;;17.80;11.10;;;;;;;1.70;69.53;102609.67;105395;1273;71804;-71
2022/03/22 06:29:07;;;;;;;16.70;9.20;;;;;;;1.79;69.58;102609.08;105416;1276;61336;-72
2022/03/22 06:31:55;;;;;;;;;;;;;;;;;;;;;
2022/03/22 06:34:22;;;;;;;15.70;9.50;;;;;;;1.98;69.60;102611.84;105372;1274;75831;-75
2022/03/22 06:36:48;;;;;;;21.40;9.70;;;;;;;2.09;69.64;102613.79;105244;1273;72847;-75
2022/03/22 06:39:15;;;;;;;15.70;9.80;;;;;;;2.20;69.49;102613.41;105258;1273;73976;-75
2022/03/22 06:41:42;;;;;;;16.50;9.60;;;;;;;2.32;69.15;102616.67;105240;1274;61269;-76
2022/03/22 06:44:32;;;;;;;17.20;11.10;;;;;;;2.46;68.79;102618.83;105289;1274;61171;-77
2022/03/22 06:47:02;;;;;;;19.00;11.80;;;;;;;2.63;68.58;102617.83;108331;1273;74945;-75
2022/03/22 06:49:31;;;;;;;21.80;12.10;;;;;;;2.77;68.31;102620.23;108358;1272;72368;-76
2022/03/22 06:51:57;;;;;;;17.90;10.40;;;;;;;2.93;67.99;102621.73;108356;1273;72705;-78
2022/03/22 06:54:25;;;;;;;21.10;12.00;;;;;;;3.10;68.02;102622.60;108378;1273;59894;-75
2022/03/22 06:57:03;;;;;;;;;;;;;;;;;;;;;
2022/03/22 06:59:39;;;;;;;18.60;9.70;;;;;;;3.49;66.99;102616.73;105900;1274;75334;-78
2022/03/22 07:02:06;;;;;;;15.60;8.80;;;;;;;3.66;66.35;102613.70;105379;1273;72206;-76
2022/03/22 07:04:32;;;;;;;18.80;11.20;;;;;;;3.83;66.28;102606.52;105346;1274;71869;-73
2022/03/22 07:06:59;;;;;;;19.80;12.10;;;;;;;4.01;65.49;102603.90;105373;1273;59309;-74
2022/03/22 07:09:26;;;;;;;12.90;8.20;;;;;;;4.19;65.07;102605.39;105300;1273;61480;-74
2022/03/22 07:11:56;;;;;;;14.90;9.00;;;;;;;4.35;64.59;102605.02;105282;1274;75068;-76
2022/03/22 07:14:24;;;;;;;15.70;9.00;;;;;;;4.51;64.42;102608.34;105347;1273;69978;-75
2022/03/22 07:16:55;;;;;;;15.40;8.10;;;;;;;4.66;63.61;102607.97;105197;1274;73218;-75
2022/03/22 07:19:23;;;;;;;15.90;8.40;;;;;;;4.81;63.41;102616.71;105225;1273;61394;-75
2022/03/22 07:21:57;;;;;;;19.60;9.60;;;;;;;4.96;62.98;102619.55;105296;1274;61944;-76
2022/03/22 07:24:29;;;;;;;13.30;8.60;;;;;;;5.12;62.84;102622.27;105261;1273;75826;-76
2022/03/22 07:26:56;;;;;;;19.80;11.30;;;;;;;5.28;62.41;102625.13;105252;1273;71649;-76
2022/03/22 07:29:22;;;;;;;19.10;11.30;;;;;;;5.45;61.86;102621.33;105215;1274;72026;-70
2022/03/22 07:32:19;;;;;;;20.30;10.50;;;;;;;5.62;61.35;102624.66;105205;1274;61314;-72
2022/03/22 07:34:46;;;;;;;15.00;8.70;;;;;;;5.84;60.58;102624.23;108360;1273;61354;-72
2022/03/22 07:37:14;;;;;;;15.20;9.20;;;;;;;6.01;60.01;102627.69;108371;1274;74753;-73
2022/03/22 07:39:40;;;;;;;14.40;8.40;;;;;;;6.19;59.30;102632.21;108399;1273;70074;-72
2022/03/22 07:42:09;;;;;;;15.90;8.90;;;;;;;6.35;58.37;102626.58;108333;1273;73881;-74
2022/03/22 07:44:36;;;;;;;12.50;8.40;;;;;;;6.50;57.76;102625.59;108377;1273;60527;-75
2022/03/22 07:47:03;;;;;;;16.90;9.20;;;;;;;6.66;57.24;102626.33;108320;1273;61776;-72
2022/03/22 07:54:59;;;;;;;17.30;9.20;;;;;;;7.21;56.72;102631.92;108333;1273;73998;-72
2022/03/22 07:57:26;;;;;;;13.20;7.80;;;;;;;7.41;56.52;102634.95;108346;1273;61124;-72
2022/03/22 07:59:53;;;;;;;13.50;8.70;;;;;;;7.60;55.45;102637.68;108338;1274;60503;-72
2022/03/22 08:02:20;;;;;;;13.40;8.40;;;;;;;7.77;54.58;102638.43;108291;1275;74864;-72
2022/03/22 08:04:49;;;;;;;17.10;10.30;;;;;;;7.93;53.38;102637.33;108405;1273;70832;-73
2022/03/22 08:07:16;;;;;;;15.10;9.50;;;;;;;8.07;52.93;102636.80;108220;1274;73962;-73
2022/03/22 08:09:45;;;;;;;17.30;10.00;;;;;;;8.22;53.01;102638.75;108097;1273;424591;-72
2022/03/22 08:12:15;;;;;;;15.10;9.10;;;;;;;8.36;52.02;102639.45;108343;1273;60690;-72
2022/03/22 08:14:42;;;;;;;14.50;8.90;;;;;;;8.51;52.09;102648.77;108355;1273;76641;-72
2022/03/22 08:17:08;;;;;;;18.20;9.40;;;;;;;8.64;51.45;102648.36;108227;1273;71412;-71
2022/03/22 08:19:36;;;;;;;14.70;9.20;;;;;;;8.75;51.15;102650.02;104973;1276;73198;-71
2022/03/22 08:22:03;;;;;;;13.70;9.80;;;;;;;8.87;50.82;102646.30;108306;1273;61817;-71
2022/03/22 08:24:30;;;;;;;14.80;9.90;;;;;;;9.00;50.38;102644.65;107740;1273;61614;-71
2022/03/22 08:26:59;;;;;;;15.80;10.00;;;;;;;9.13;49.51;102641.53;105167;1273;74984;-70
2022/03/22 08:29:29;;;;;;;16.40;10.10;;;;;;;9.27;49.35;102638.80;105022;1274;72416;-73
2022/03/22 08:31:59;;;;;;;15.40;9.40;;;;;;;9.45;49.17;102636.95;105115;1275;75045;-72
2022/03/22 08:34:26;;;;;;;15.00;8.00;;;;;;;9.60;48.53;102635.38;105179;1273;61818;-72
2022/03/22 08:36:58;;;;;;;15.10;9.10;;;;;;;9.73;48.00;102635.77;105127;1273;61270;-70
2022/03/22 08:39:25;;;;;;;17.40;9.20;;;;;;;9.87;47.45;102636.78;108191;1273;76013;-71
2022/03/22 08:41:52;;;;;;;14.40;9.50;;;;;;;9.99;47.93;102634.03;108358;1273;59429;-71
2022/03/22 08:44:20;;;;;;;17.40;9.30;;;;;;;10.13;47.49;102635.96;108372;1273;74050;-71
2022/03/22 08:46:51;;;;;;;12.90;9.40;;;;;;;10.28;47.92;102635.24;108361;1273;59367;-73
2022/03/22 08:49:18;;;;;;;16.20;10.10;;;;;;;10.46;47.22;102636.70;108304;1273;60473;-74
2022/03/22 08:51:45;;;;;;;15.10;9.50;;;;;;;10.60;46.92;102638.52;108284;1274;75999;-75
2022/03/22 08:54:11;;;;;;;14.40;9.20;;;;;;;10.72;46.56;102635.01;107654;1273;72559;-73
2022/03/22 08:56:40;;;;;;;13.80;8.70;;;;;;;10.87;45.53;102634.52;105839;1273;73023;-74
2022/03/22 08:59:07;;;;;;;16.00;9.60;;;;;;;10.95;44.30;102633.25;108350;1273;61696;-72
2022/03/22 09:01:37;;;;;;;16.50;9.80;;;;;;;11.09;44.60;102639.92;107328;1273;61268;-72
2022/03/22 09:06:52;;;;;;;15.40;10.10;;;;;;;11.37;43.11;102639.42;105191;1273;71453;-71
2022/03/22 09:09:19;;;;;;;15.00;9.60;;;;;;;11.49;42.63;102636.98;105270;1273;73970;-72
2022/03/22 09:11:46;;;;;;;16.60;10.50;;;;;;;11.62;42.24;102633.59;105229;1274;61503;-71
2022/03/22 09:14:12;;;;;;;14.10;9.60;;;;;;;11.77;41.28;102634.34;105184;1273;61230;-72
2022/03/22 09:16:39;;;;;;;14.40;9.40;;;;;;;11.94;40.61;102628.98;105211;1274;75043;-72
2022/03/22 09:19:05;;;;;;;15.70;10.00;;;;;;;12.08;39.60;102629.55;105221;1274;72588;-74
2022/03/22 09:21:32;;;;;;;14.60;9.20;;;;;;;12.18;38.58;102625.75;105111;1276;73007;-71
2022/03/22 09:24:15;;;;;;;13.50;8.70;;;;;;;12.28;39.06;102622.74;105245;1273;61309;-71
2022/03/22 09:26:42;;;;;;;14.60;9.80;;;;;;;12.44;39.09;102622.52;108407;1274;60625;-72
2022/03/22 09:29:09;;;;;;;14.50;10.00;;;;;;;12.54;38.71;102622.16;108370;1273;76045;-74
2022/03/22 09:31:36;;;;;;;13.90;9.80;;;;;;;12.64;38.90;102618.94;108415;1274;72147;-71
2022/03/22 09:34:03;;;;;;;18.10;10.50;;;;;;;12.76;37.51;102615.87;108346;1273;72931;-72
2022/03/22 09:36:32;;;;;;;13.20;8.40;;;;;;;12.87;37.68;102614.33;108332;1274;60147;-72
2022/03/22 09:38:58;;;;;;;20.80;10.40;;;;;;;12.97;37.89;102614.85;108371;1273;61295;-75
2022/03/22 09:41:30;;;;;;;13.70;9.30;;;;;;;13.10;37.84;102614.19;108017;1274;73967;-74
2022/03/22 09:43:57;;;;;;;15.20;8.70;;;;;;;13.25;38.07;102615.73;105311;1273;71830;-73
2022/03/22 09:46:24;;;;;;;13.20;9.60;;;;;;;13.37;37.66;102618.21;105355;1273;72969;-74
2022/03/22 09:48:51;;;;;;;13.20;10.30;;;;;;;13.48;37.66;102607.70;105283;1273;61280;-73
2022/03/22 09:54:07;;;;;;;14.80;9.70;;;;;;;13.81;37.03;102603.85;108383;1274;74988;-74
2022/03/22 09:56:34;;;;;;;16.00;9.60;;;;;;;13.92;36.47;102606.53;108336;1273;71908;-74
2022/03/22 09:59:04;;;;;;;15.40;10.70;;;;;;;14.00;36.24;102606.98;108325;1276;72108;-76
2022/03/22 10:01:32;;;;;;;12.20;9.00;;;;;;;14.11;36.12;102602.88;105393;1274;61848;-75
2022/03/22 10:04:04;;;;;;;14.60;9.50;;;;;;;14.26;36.77;102605.09;105191;1274;61168;-72
2022/03/22 10:06:31;;;;;;;14.10;9.60;;;;;;;14.44;35.65;102604.91;105264;1274;74999;-73
2022/03/22 10:09:03;;;;;;;13.90;9.90;;;;;;;14.61;35.88;102608.79;105387;1273;72424;-73
2022/03/22 10:11:40;;;;;;;16.30;10.50;;;;;;;14.78;34.42;102605.34;108266;1275;72355;-73
2022/03/22 10:14:08;;;;;;;13.00;8.50;;;;;;;14.92;34.88;102606.52;106503;1273;61988;-73
2022/03/22 10:16:47;;;;;;;12.90;8.60;;;;;;;15.09;34.51;102606.93;105429;1274;61812;-72
2022/03/22 10:19:32;;;;;;;13.70;10.20;;;;;;;15.25;34.54;102601.86;108268;1274;73897;-73
2022/03/22 10:22:04;;;;;;;16.50;10.50;;;;;;;15.44;34.64;102602.79;108069;1276;70834;-76
2022/03/22 10:24:50;;;;;;;15.90;10.10;;;;;;;15.56;34.70;102596.73;108032;1273;73475;-75
2022/03/22 10:27:20;;;;;;;17.00;10.10;;;;;;;15.72;34.65;102596.46;105449;1274;61263;-77
2022/03/22 10:29:46;;;;;;;13.70;9.50;;;;;;;15.84;34.43;102593.95;105230;1276;61367;-74
2022/03/22 10:32:14;;;;;;;15.90;9.70;;;;;;;15.96;34.62;102592.36;105923;1273;59423;-74
2022/03/22 10:34:42;;;;;;;18.20;10.50;;;;;;;16.09;34.51;102592.70;105106;1274;71390;-77
2022/03/22 10:37:09;;;;;;;16.30;10.10;;;;;;;16.24;34.06;102588.08;105200;1273;74371;-73
2022/03/22 10:39:42;;;;;;;16.50;10.00;;;;;;;16.33;33.44;102585.35;104947;1276;61455;-73
2022/03/22 10:42:09;;;;;;;12.70;9.10;;;;;;;16.43;33.35;102586.00;105190;1274;60535;-73
2022/03/22 10:44:38;;;;;;;16.10;9.60;;;;;;;16.57;33.52;102585.41;105014;1275;75902;-73
2022/03/22 10:47:08;;;;;;;17.40;10.30;;;;;;;16.71;32.82;102586.58;106442;1273;72366;-74
2022/03/22 10:49:35;;;;;;;15.50;10.80;;;;;;;16.79;32.51;102581.18;108352;1273;74066;-75
2022/03/22 10:52:19;;;;;;;15.60;10.00;;;;;;;16.87;31.55;102580.52;108225;1276;62278;-73
2022/03/22 10:54:46;;;;;;;16.20;9.70;;;;;;;16.94;30.94;102582.91;108329;1273;61635;-71
2022/03/22 10:57:17;;;;;;;14.90;10.20;;;;;;;17.02;31.42;102583.10;108070;1273;75819;-74
2022/03/22 10:59:48;;;;;;;14.50;10.10;;;;;;;17.16;30.58;102582.69;108387;1273;72304;-74
2022/03/22 11:02:25;;;;;;;13.50;9.30;;;;;;;17.17;29.92;102580.08;108330;1274;72902;-75
2022/03/22 11:04:53;;;;;;;18.20;10.50;;;;;;;17.21;30.94;102580.37;108153;1276;60439;-72
2022/03/22 11:07:21;;;;;;;16.30;10.40;;;;;;;17.34;31.71;102574.22;108379;1273;60549;-72
2022/03/22 11:09:47;;;;;;;15.00;10.50;;;;;;;17.51;32.27;102570.63;108363;1273;76302;-73
2022/03/22 11:12:17;;;;;;;12.80;8.40;;;;;;;17.65;32.17;102567.59;108347;1273;72348;-73
2022/03/22 11:14:46;;;;;;;16.40;10.00;;;;;;;17.76;31.73;102565.79;108326;1273;72970;-73
2022/03/22 11:17:12;;;;;;;16.10;10.70;;;;;;;17.84;31.62;102566.13;108336;1273;59250;-73
2022/03/22 11:19:39;;;;;;;17.30;11.70;;;;;;;17.91;30.90;102564.91;108373;1273;60663;-73
2022/03/22 11:22:06;;;;;;;17.90;10.90;;;;;;;17.96;30.91;102560.65;108407;1274;74324;-73
2022/03/22 11:24:36;;;;;;;10.10;7.00;;;;;;;18.05;31.28;102558.91;108358;1273;71793;-73
2022/03/22 11:27:06;;;;;;;13.00;10.00;;;;;;;18.13;31.24;102556.34;108277;1274;74151;-73
2022/03/22 11:29:33;;;;;;;14.20;9.40;;;;;;;18.22;31.01;102551.93;108411;1271;60535;-73
2022/03/22 11:34:46;;;;;;;15.30;10.30;;;;;;;18.48;30.65;102555.31;107936;1274;74982;-75
2022/03/22 11:37:13;;;;;;;14.00;10.10;;;;;;;18.49;30.08;102555.02;108272;1274;71521;-73
2022/03/22 11:42:36;;;;;;;15.00;9.30;;;;;;;18.63;30.50;102551.91;108238;1274;62250;-73
2022/03/22 11:45:08;;;;;;;14.60;10.30;;;;;;;18.74;29.45;102547.13;108414;1273;59162;-74
2022/03/22 11:47:40;;;;;;;15.40;9.30;;;;;;;18.83;29.32;102545.92;108367;1273;75486;-77
2022/03/22 11:50:09;;;;;;;14.10;9.60;;;;;;;18.94;29.44;102545.00;108374;1273;72396;-74
2022/03/22 11:52:41;;;;;;;21.00;11.70;;;;;;;19.07;28.60;102542.02;108073;1274;71853;-74
2022/03/22 11:55:16;;;;;;;12.30;8.40;;;;;;;19.23;28.26;102545.80;106826;1276;61268;-74
2022/03/22 11:57:52;;;;;;;13.60;9.70;;;;;;;19.50;27.72;102541.16;105121;1274;61590;-73
2022/03/22 12:00:22;;;;;;;15.40;11.00;;;;;;;19.94;28.01;102541.04;105207;1275;76231;-72
2022/03/22 12:02:55;;;;;;;16.10;9.90;;;;;;;20.38;26.91;102534.62;105206;1274;71895;-70
2022/03/22 12:05:23;;;;;;;14.40;10.10;;;;;;;20.82;25.89;102529.11;105199;1275;73021;-69
2022/03/22 12:07:51;;;;;;;12.20;9.80;;;;;;;21.15;24.14;102526.09;108368;1273;60395;-71
2022/03/22 12:10:21;;;;;;;12.30;9.10;;;;;;;21.46;24.50;102521.58;108377;1274;60616;-70
2022/03/22 12:12:50;;;;;;;12.80;9.50;;;;;;;21.84;24.12;102525.45;108291;1274;77882;-70
2022/03/22 12:15:23;;;;;;;13.60;9.60;;;;;;;22.32;23.42;102521.39;105596;1274;70996;-69
2022/03/22 12:17:52;;;;;;;15.00;11.00;;;;;;;22.72;22.85;102519.51;105012;1274;74190;-68
2022/03/22 12:20:21;;;;;;;11.80;8.90;;;;;;;23.05;22.36;102516.25;105191;1274;60631;-68
2022/03/22 12:22:53;;;;;;;11.00;8.60;;;;;;;23.58;21.65;102516.05;108355;1273;60646;-70
2022/03/22 12:25:23;;;;;;;10.90;8.60;;;;;;;24.10;20.33;102507.45;108346;1274;74893;-69
2022/03/22 12:27:58;;;;;;;11.40;8.20;;;;;;;24.59;19.86;102503.60;108384;1273;72412;-70